sensor_id;sensor_type;location;lat;lon;timestamp;P1;durP1;ratioP1;P2;durP2;ratioP2
14907;SDS011;7545;52.092;7.006;2022-12-29T00:01:51;1.60;;;1.10;;
14907;SDS011;7545;52.092;7.006;2022-12-29T00:04:17;1.70;;;1.50;;
14907;SDS011;7545;52.092;7.006;2022-12-29T00:06:43;2.70;;;1.30;;
14907;SDS011;7545;52.092;7.006;2022-12-29T00:09:12;1.45;;;1.30;;
14907;SDS011;7545;52.092;7.006;2022-12-29T00:11:38;1.02;;;0.85;;
14907;SDS011;7545;52.092;7.006;2022-12-29T00:14:04;2.60;;;1.13;;
14907;SDS011;7545;52.092;7.006;2022-12-29T00:16:50;2.10;;;1.10;;
14907;SDS011;7545;52.092;7.006;2022-12-29T00:19:16;1.00;;;0.90;;
14907;SDS011;7545;52.092;7.006;2022-12-29T00:22:00;2.40;;;2.20;;
14907;SDS011;7545;52.092;7.006;2022-12-29T00:24:44;1.10;;;1.00;;
14907;SDS011;7545;52.092;7.006;2022-12-29T00:27:29;1.83;;;1.05;;
14907;SDS011;7545;52.092;7.006;2022-12-29T00:30:14;2.30;;;1.15;;
14907;SDS011;7545;52.092;7.006;2022-12-29T00:32:59;0.98;;;0.80;;
14907;SDS011;7545;52.092;7.006;2022-12-29T00:35:45;1.40;;;1.08;;
14907;SDS011;7545;52.092;7.006;2022-12-29T00:38:17;2.80;;;1.25;;
14907;SDS011;7545;52.092;7.006;2022-12-29T00:41:02;3.33;;;1.30;;
14907;SDS011;7545;52.092;7.006;2022-12-29T00:43:46;2.20;;;0.90;;
14907;SDS011;7545;52.092;7.006;2022-12-29T00:46:30;1.30;;;0.88;;
14907;SDS011;7545;52.092;7.006;2022-12-29T00:48:56;1.23;;;1.00;;
14907;SDS011;7545;52.092;7.006;2022-12-29T00:51:41;1.10;;;0.90;;
14907;SDS011;7545;52.092;7.006;2022-12-29T00:54:07;1.52;;;1.00;;
14907;SDS011;7545;52.092;7.006;2022-12-29T00:56:33;1.70;;;1.05;;
14907;SDS011;7545;52.092;7.006;2022-12-29T00:59:02;0.82;;;0.80;;
14907;SDS011;7545;52.092;7.006;2022-12-29T01:01:29;1.38;;;1.00;;
14907;SDS011;7545;52.092;7.006;2022-12-29T01:03:55;1.15;;;1.02;;
14907;SDS011;7545;52.092;7.006;2022-12-29T01:06:20;1.70;;;0.70;;
14907;SDS011;7545;52.092;7.006;2022-12-29T01:08:47;0.80;;;0.70;;
14907;SDS011;7545;52.092;7.006;2022-12-29T01:11:32;1.63;;;0.85;;
14907;SDS011;7545;52.092;7.006;2022-12-29T01:13:58;1.10;;;0.93;;
14907;SDS011;7545;52.092;7.006;2022-12-29T01:16:24;1.00;;;0.80;;
14907;SDS011;7545;52.092;7.006;2022-12-29T01:18:49;0.73;;;0.70;;
14907;SDS011;7545;52.092;7.006;2022-12-29T01:21:15;0.60;;;0.60;;
14907;SDS011;7545;52.092;7.006;2022-12-29T01:23:40;0.95;;;0.60;;
14907;SDS011;7545;52.092;7.006;2022-12-29T01:26:10;1.83;;;0.60;;
14907;SDS011;7545;52.092;7.006;2022-12-29T01:28:36;1.20;;;0.60;;
14907;SDS011;7545;52.092;7.006;2022-12-29T01:31:05;1.00;;;0.90;;
14907;SDS011;7545;52.092;7.006;2022-12-29T01:33:31;0.75;;;0.55;;
14907;SDS011;7545;52.092;7.006;2022-12-29T01:36:15;1.05;;;0.80;;
14907;SDS011;7545;52.092;7.006;2022-12-29T01:38:42;0.80;;;0.75;;
14907;SDS011;7545;52.092;7.006;2022-12-29T01:41:09;1.10;;;0.75;;
14907;SDS011;7545;52.092;7.006;2022-12-29T01:43:43;2.00;;;1.17;;
14907;SDS011;7545;52.092;7.006;2022-12-29T01:48:49;0.95;;;0.90;;
14907;SDS011;7545;52.092;7.006;2022-12-29T01:51:18;1.23;;;1.13;;
14907;SDS011;7545;52.092;7.006;2022-12-29T01:53:46;1.83;;;1.10;;
14907;SDS011;7545;52.092;7.006;2022-12-29T01:56:12;0.95;;;0.80;;
14907;SDS011;7545;52.092;7.006;2022-12-29T01:58:42;0.63;;;0.63;;
14907;SDS011;7545;52.092;7.006;2022-12-29T02:01:11;1.15;;;1.05;;
14907;SDS011;7545;52.092;7.006;2022-12-29T02:03:37;1.13;;;0.80;;
14907;SDS011;7545;52.092;7.006;2022-12-29T02:06:10;0.82;;;0.75;;
14907;SDS011;7545;52.092;7.006;2022-12-29T02:08:40;1.27;;;1.17;;
14907;SDS011;7545;52.092;7.006;2022-12-29T02:11:06;1.17;;;0.90;;
14907;SDS011;7545;52.092;7.006;2022-12-29T02:13:32;1.20;;;0.90;;
14907;SDS011;7545;52.092;7.006;2022-12-29T02:34:40;1.20;;;0.85;;
14907;SDS011;7545;52.092;7.006;2022-12-29T02:37:20;0.70;;;0.60;;
14907;SDS011;7545;52.092;7.006;2022-12-29T02:45:23;1.98;;;0.85;;
14907;SDS011;7545;52.092;7.006;2022-12-29T02:47:56;0.73;;;0.60;;
14907;SDS011;7545;52.092;7.006;2022-12-29T02:50:37;1.90;;;0.73;;
14907;SDS011;7545;52.092;7.006;2022-12-29T02:53:09;3.35;;;0.70;;
14907;SDS011;7545;52.092;7.006;2022-12-29T02:55:38;1.00;;;0.90;;
14907;SDS011;7545;52.092;7.006;2022-12-29T02:58:16;2.35;;;0.80;;
14907;SDS011;7545;52.092;7.006;2022-12-29T03:03:46;3.08;;;1.00;;
14907;SDS011;7545;52.092;7.006;2022-12-29T03:11:43;0.80;;;0.68;;
14907;SDS011;7545;52.092;7.006;2022-12-29T03:14:38;1.48;;;0.90;;
14907;SDS011;7545;52.092;7.006;2022-12-29T03:17:35;0.90;;;0.60;;
14907;SDS011;7545;52.092;7.006;2022-12-29T03:20:13;1.45;;;0.68;;
14907;SDS011;7545;52.092;7.006;2022-12-29T03:22:43;0.65;;;0.55;;
14907;SDS011;7545;52.092;7.006;2022-12-29T03:25:24;1.40;;;0.65;;
14907;SDS011;7545;52.092;7.006;2022-12-29T03:28:05;0.82;;;0.60;;
14907;SDS011;7545;52.092;7.006;2022-12-29T03:30:37;0.90;;;0.63;;
14907;SDS011;7545;52.092;7.006;2022-12-29T03:33:07;0.88;;;0.70;;
14907;SDS011;7545;52.092;7.006;2022-12-29T03:35:37;1.27;;;0.60;;
14907;SDS011;7545;52.092;7.006;2022-12-29T03:40:36;0.85;;;0.65;;
14907;SDS011;7545;52.092;7.006;2022-12-29T03:43:04;2.05;;;0.60;;
14907;SDS011;7545;52.092;7.006;2022-12-29T03:45:30;1.08;;;0.63;;
14907;SDS011;7545;52.092;7.006;2022-12-29T03:47:56;1.58;;;0.70;;
14907;SDS011;7545;52.092;7.006;2022-12-29T03:50:22;1.33;;;1.17;;
14907;SDS011;7545;52.092;7.006;2022-12-29T03:52:47;1.55;;;0.75;;
14907;SDS011;7545;52.092;7.006;2022-12-29T03:55:13;1.05;;;0.68;;
14907;SDS011;7545;52.092;7.006;2022-12-29T03:57:39;2.53;;;0.70;;
14907;SDS011;7545;52.092;7.006;2022-12-29T04:00:05;1.83;;;0.75;;
14907;SDS011;7545;52.092;7.006;2022-12-29T04:02:31;0.82;;;0.65;;
14907;SDS011;7545;52.092;7.006;2022-12-29T04:04:57;1.23;;;0.40;;
14907;SDS011;7545;52.092;7.006;2022-12-29T04:07:22;2.13;;;0.75;;
14907;SDS011;7545;52.092;7.006;2022-12-29T04:09:48;1.52;;;0.63;;
14907;SDS011;7545;52.092;7.006;2022-12-29T04:12:13;0.85;;;0.50;;
14907;SDS011;7545;52.092;7.006;2022-12-29T04:14:39;2.05;;;0.60;;
14907;SDS011;7545;52.092;7.006;2022-12-29T04:17:05;2.60;;;0.60;;
14907;SDS011;7545;52.092;7.006;2022-12-29T04:19:31;1.38;;;0.45;;
14907;SDS011;7545;52.092;7.006;2022-12-29T04:21:57;2.03;;;0.50;;
14907;SDS011;7545;52.092;7.006;2022-12-29T04:24:22;1.27;;;0.82;;
14907;SDS011;7545;52.092;7.006;2022-12-29T04:26:48;0.85;;;0.63;;
14907;SDS011;7545;52.092;7.006;2022-12-29T04:29:14;2.40;;;0.50;;
14907;SDS011;7545;52.092;7.006;2022-12-29T04:31:39;1.42;;;0.70;;
14907;SDS011;7545;52.092;7.006;2022-12-29T04:34:05;0.45;;;0.32;;
14907;SDS011;7545;52.092;7.006;2022-12-29T04:36:31;0.70;;;0.40;;
14907;SDS011;7545;52.092;7.006;2022-12-29T04:38:56;2.80;;;0.50;;
14907;SDS011;7545;52.092;7.006;2022-12-29T04:41:22;1.48;;;0.80;;
14907;SDS011;7545;52.092;7.006;2022-12-29T04:43:48;0.80;;;0.50;;
14907;SDS011;7545;52.092;7.006;2022-12-29T04:46:14;1.05;;;0.65;;
14907;SDS011;7545;52.092;7.006;2022-12-29T04:48:39;1.45;;;0.73;;
14907;SDS011;7545;52.092;7.006;2022-12-29T04:51:05;1.55;;;0.40;;
14907;SDS011;7545;52.092;7.006;2022-12-29T04:53:31;0.73;;;0.40;;
14907;SDS011;7545;52.092;7.006;2022-12-29T04:55:56;1.05;;;0.75;;
14907;SDS011;7545;52.092;7.006;2022-12-29T04:58:22;3.35;;;0.63;;
14907;SDS011;7545;52.092;7.006;2022-12-29T05:00:47;0.60;;;0.47;;
14907;SDS011;7545;52.092;7.006;2022-12-29T05:03:13;0.70;;;0.52;;
14907;SDS011;7545;52.092;7.006;2022-12-29T05:05:38;0.68;;;0.40;;
14907;SDS011;7545;52.092;7.006;2022-12-29T05:08:04;1.20;;;0.70;;
14907;SDS011;7545;52.092;7.006;2022-12-29T05:10:30;1.30;;;0.50;;
14907;SDS011;7545;52.092;7.006;2022-12-29T05:12:55;1.27;;;0.50;;
14907;SDS011;7545;52.092;7.006;2022-12-29T05:15:22;1.75;;;0.52;;
14907;SDS011;7545;52.092;7.006;2022-12-29T05:17:48;0.63;;;0.50;;
14907;SDS011;7545;52.092;7.006;2022-12-29T05:20:13;0.80;;;0.40;;
14907;SDS011;7545;52.092;7.006;2022-12-29T05:22:39;2.03;;;0.63;;
14907;SDS011;7545;52.092;7.006;2022-12-29T05:25:04;2.65;;;0.65;;
14907;SDS011;7545;52.092;7.006;2022-12-29T05:27:31;0.75;;;0.57;;
14907;SDS011;7545;52.092;7.006;2022-12-29T05:29:57;2.35;;;0.77;;
14907;SDS011;7545;52.092;7.006;2022-12-29T05:32:23;0.35;;;0.30;;
14907;SDS011;7545;52.092;7.006;2022-12-29T05:34:48;1.58;;;0.40;;
14907;SDS011;7545;52.092;7.006;2022-12-29T05:37:14;0.88;;;0.40;;
14907;SDS011;7545;52.092;7.006;2022-12-29T05:39:40;0.70;;;0.45;;
14907;SDS011;7545;52.092;7.006;2022-12-29T05:42:05;2.58;;;0.63;;
14907;SDS011;7545;52.092;7.006;2022-12-29T05:44:31;2.25;;;0.38;;
14907;SDS011;7545;52.092;7.006;2022-12-29T05:46:57;2.35;;;0.40;;
14907;SDS011;7545;52.092;7.006;2022-12-29T05:49:22;1.10;;;0.40;;
14907;SDS011;7545;52.092;7.006;2022-12-29T05:51:48;1.08;;;0.40;;
14907;SDS011;7545;52.092;7.006;2022-12-29T05:54:13;1.00;;;0.45;;
14907;SDS011;7545;52.092;7.006;2022-12-29T05:56:39;2.38;;;0.57;;
14907;SDS011;7545;52.092;7.006;2022-12-29T05:59:05;0.60;;;0.40;;
14907;SDS011;7545;52.092;7.006;2022-12-29T06:01:30;1.25;;;0.47;;
14907;SDS011;7545;52.092;7.006;2022-12-29T06:03:56;1.80;;;0.50;;
14907;SDS011;7545;52.092;7.006;2022-12-29T06:06:21;2.15;;;0.50;;
14907;SDS011;7545;52.092;7.006;2022-12-29T06:08:47;2.28;;;0.80;;
14907;SDS011;7545;52.092;7.006;2022-12-29T06:11:13;2.30;;;0.37;;
14907;SDS011;7545;52.092;7.006;2022-12-29T06:13:38;2.27;;;0.70;;
14907;SDS011;7545;52.092;7.006;2022-12-29T06:16:04;2.73;;;0.90;;
14907;SDS011;7545;52.092;7.006;2022-12-29T06:18:30;1.33;;;1.00;;
14907;SDS011;7545;52.092;7.006;2022-12-29T06:21:02;3.50;;;1.08;;
14907;SDS011;7545;52.092;7.006;2022-12-29T06:23:29;4.22;;;1.15;;
14907;SDS011;7545;52.092;7.006;2022-12-29T06:25:54;3.22;;;1.58;;
14907;SDS011;7545;52.092;7.006;2022-12-29T06:28:20;4.82;;;0.95;;
14907;SDS011;7545;52.092;7.006;2022-12-29T06:30:46;3.40;;;0.90;;
14907;SDS011;7545;52.092;7.006;2022-12-29T06:33:13;5.47;;;1.00;;
14907;SDS011;7545;52.092;7.006;2022-12-29T06:35:41;3.17;;;0.90;;
14907;SDS011;7545;52.092;7.006;2022-12-29T06:38:07;3.85;;;1.27;;
14907;SDS011;7545;52.092;7.006;2022-12-29T06:40:33;3.60;;;0.73;;
14907;SDS011;7545;52.092;7.006;2022-12-29T06:42:59;7.15;;;0.90;;
14907;SDS011;7545;52.092;7.006;2022-12-29T06:45:24;3.92;;;1.13;;
14907;SDS011;7545;52.092;7.006;2022-12-29T06:47:50;1.42;;;0.60;;
14907;SDS011;7545;52.092;7.006;2022-12-29T06:50:16;3.13;;;0.70;;
14907;SDS011;7545;52.092;7.006;2022-12-29T06:52:41;4.07;;;0.80;;
14907;SDS011;7545;52.092;7.006;2022-12-29T06:55:07;4.00;;;1.10;;
14907;SDS011;7545;52.092;7.006;2022-12-29T06:57:33;1.90;;;0.60;;
14907;SDS011;7545;52.092;7.006;2022-12-29T06:59:58;3.17;;;1.23;;
14907;SDS011;7545;52.092;7.006;2022-12-29T07:02:24;2.80;;;0.90;;
14907;SDS011;7545;52.092;7.006;2022-12-29T07:04:50;2.88;;;0.70;;
14907;SDS011;7545;52.092;7.006;2022-12-29T07:07:17;3.13;;;0.70;;
14907;SDS011;7545;52.092;7.006;2022-12-29T07:09:43;2.87;;;1.10;;
14907;SDS011;7545;52.092;7.006;2022-12-29T07:12:09;1.50;;;0.60;;
14907;SDS011;7545;52.092;7.006;2022-12-29T07:14:34;4.20;;;0.90;;
14907;SDS011;7545;52.092;7.006;2022-12-29T07:17:01;2.33;;;0.70;;
14907;SDS011;7545;52.092;7.006;2022-12-29T07:19:28;2.88;;;0.70;;
14907;SDS011;7545;52.092;7.006;2022-12-29T07:21:54;2.05;;;0.75;;
14907;SDS011;7545;52.092;7.006;2022-12-29T07:24:20;1.48;;;0.60;;
14907;SDS011;7545;52.092;7.006;2022-12-29T07:26:45;4.50;;;0.75;;
14907;SDS011;7545;52.092;7.006;2022-12-29T07:29:11;4.23;;;1.20;;
14907;SDS011;7545;52.092;7.006;2022-12-29T07:31:36;1.38;;;0.73;;
14907;SDS011;7545;52.092;7.006;2022-12-29T07:34:02;4.93;;;0.80;;
14907;SDS011;7545;52.092;7.006;2022-12-29T07:36:28;3.53;;;0.87;;
14907;SDS011;7545;52.092;7.006;2022-12-29T07:38:53;3.35;;;0.50;;
14907;SDS011;7545;52.092;7.006;2022-12-29T07:41:19;1.73;;;0.90;;
14907;SDS011;7545;52.092;7.006;2022-12-29T07:43:48;0.85;;;0.50;;
14907;SDS011;7545;52.092;7.006;2022-12-29T07:46:14;5.13;;;0.75;;
14907;SDS011;7545;52.092;7.006;2022-12-29T07:48:39;4.03;;;1.23;;
14907;SDS011;7545;52.092;7.006;2022-12-29T07:51:05;2.43;;;0.87;;
14907;SDS011;7545;52.092;7.006;2022-12-29T07:53:31;2.05;;;0.65;;
14907;SDS011;7545;52.092;7.006;2022-12-29T07:55:57;3.13;;;0.70;;
14907;SDS011;7545;52.092;7.006;2022-12-29T07:58:23;2.33;;;0.87;;
14907;SDS011;7545;52.092;7.006;2022-12-29T08:00:52;1.70;;;0.80;;
14907;SDS011;7545;52.092;7.006;2022-12-29T08:03:19;6.97;;;0.95;;
14907;SDS011;7545;52.092;7.006;2022-12-29T08:05:44;4.97;;;0.88;;
14907;SDS011;7545;52.092;7.006;2022-12-29T08:08:10;4.77;;;0.80;;
14907;SDS011;7545;52.092;7.006;2022-12-29T08:10:35;4.05;;;1.23;;
14907;SDS011;7545;52.092;7.006;2022-12-29T08:13:01;2.60;;;0.60;;
14907;SDS011;7545;52.092;7.006;2022-12-29T08:15:26;1.77;;;0.90;;
14907;SDS011;7545;52.092;7.006;2022-12-29T08:17:52;3.42;;;0.85;;
14907;SDS011;7545;52.092;7.006;2022-12-29T08:20:18;1.73;;;0.70;;
14907;SDS011;7545;52.092;7.006;2022-12-29T08:22:43;1.57;;;0.70;;
14907;SDS011;7545;52.092;7.006;2022-12-29T08:25:09;6.20;;;1.02;;
14907;SDS011;7545;52.092;7.006;2022-12-29T08:27:35;3.72;;;1.15;;
14907;SDS011;7545;52.092;7.006;2022-12-29T08:30:00;2.72;;;0.70;;
14907;SDS011;7545;52.092;7.006;2022-12-29T08:32:26;5.13;;;0.93;;
14907;SDS011;7545;52.092;7.006;2022-12-29T08:34:53;2.63;;;1.20;;
14907;SDS011;7545;52.092;7.006;2022-12-29T08:37:19;4.30;;;1.15;;
14907;SDS011;7545;52.092;7.006;2022-12-29T08:39:44;3.13;;;1.10;;
14907;SDS011;7545;52.092;7.006;2022-12-29T08:42:10;5.47;;;0.98;;
14907;SDS011;7545;52.092;7.006;2022-12-29T08:44:36;2.58;;;0.80;;
14907;SDS011;7545;52.092;7.006;2022-12-29T08:47:01;1.48;;;0.70;;
14907;SDS011;7545;52.092;7.006;2022-12-29T08:49:27;2.08;;;0.60;;
14907;SDS011;7545;52.092;7.006;2022-12-29T08:51:52;2.42;;;1.00;;
14907;SDS011;7545;52.092;7.006;2022-12-29T08:54:18;3.10;;;1.33;;
14907;SDS011;7545;52.092;7.006;2022-12-29T08:56:43;3.40;;;1.10;;
14907;SDS011;7545;52.092;7.006;2022-12-29T08:59:09;1.95;;;1.05;;
14907;SDS011;7545;52.092;7.006;2022-12-29T09:01:35;3.00;;;0.80;;
14907;SDS011;7545;52.092;7.006;2022-12-29T09:04:03;5.93;;;0.80;;
14907;SDS011;7545;52.092;7.006;2022-12-29T09:06:29;5.47;;;1.17;;
14907;SDS011;7545;52.092;7.006;2022-12-29T09:08:54;3.53;;;1.10;;
14907;SDS011;7545;52.092;7.006;2022-12-29T09:11:21;5.38;;;0.95;;
14907;SDS011;7545;52.092;7.006;2022-12-29T09:13:48;3.05;;;1.33;;
14907;SDS011;7545;52.092;7.006;2022-12-29T09:16:15;5.03;;;0.93;;
14907;SDS011;7545;52.092;7.006;2022-12-29T09:18:42;7.85;;;1.45;;
14907;SDS011;7545;52.092;7.006;2022-12-29T09:21:09;2.75;;;1.77;;
14907;SDS011;7545;52.092;7.006;2022-12-29T09:23:35;3.67;;;1.25;;
14907;SDS011;7545;52.092;7.006;2022-12-29T09:26:01;4.55;;;1.00;;
14907;SDS011;7545;52.092;7.006;2022-12-29T09:28:28;4.85;;;1.48;;
14907;SDS011;7545;52.092;7.006;2022-12-29T09:30:54;5.00;;;1.23;;
14907;SDS011;7545;52.092;7.006;2022-12-29T09:33:20;6.10;;;1.60;;
14907;SDS011;7545;52.092;7.006;2022-12-29T09:35:50;3.93;;;1.17;;
14907;SDS011;7545;52.092;7.006;2022-12-29T09:38:17;3.47;;;1.17;;
14907;SDS011;7545;52.092;7.006;2022-12-29T09:40:44;4.57;;;1.27;;
14907;SDS011;7545;52.092;7.006;2022-12-29T09:46:25;5.13;;;1.50;;
14907;SDS011;7545;52.092;7.006;2022-12-29T09:52:06;2.65;;;1.38;;
14907;SDS011;7545;52.092;7.006;2022-12-29T09:57:44;7.63;;;1.55;;
14907;SDS011;7545;52.092;7.006;2022-12-29T10:00:14;5.30;;;1.27;;
14907;SDS011;7545;52.092;7.006;2022-12-29T10:02:43;5.17;;;1.20;;
14907;SDS011;7545;52.092;7.006;2022-12-29T10:08:32;4.50;;;1.23;;
14907;SDS011;7545;52.092;7.006;2022-12-29T10:13:45;4.65;;;0.98;;
14907;SDS011;7545;52.092;7.006;2022-12-29T10:16:15;3.63;;;0.85;;
14907;SDS011;7545;52.092;7.006;2022-12-29T10:21:33;3.60;;;0.80;;
14907;SDS011;7545;52.092;7.006;2022-12-29T10:23:59;4.40;;;0.90;;
14907;SDS011;7545;52.092;7.006;2022-12-29T10:26:31;3.17;;;0.80;;
14907;SDS011;7545;52.092;7.006;2022-12-29T10:29:05;6.45;;;0.90;;
14907;SDS011;7545;52.092;7.006;2022-12-29T10:36:51;5.25;;;2.25;;
14907;SDS011;7545;52.092;7.006;2022-12-29T10:39:28;5.05;;;1.10;;
14907;SDS011;7545;52.092;7.006;2022-12-29T10:44:37;4.15;;;0.70;;
14907;SDS011;7545;52.092;7.006;2022-12-29T10:47:04;3.72;;;0.57;;
14907;SDS011;7545;52.092;7.006;2022-12-29T10:49:37;3.10;;;1.10;;
14907;SDS011;7545;52.092;7.006;2022-12-29T10:52:07;5.18;;;1.02;;
14907;SDS011;7545;52.092;7.006;2022-12-29T10:57:33;2.63;;;0.85;;
14907;SDS011;7545;52.092;7.006;2022-12-29T11:00:35;5.05;;;0.75;;
14907;SDS011;7545;52.092;7.006;2022-12-29T11:03:10;3.85;;;0.95;;
14907;SDS011;7545;52.092;7.006;2022-12-29T11:08:35;4.28;;;1.02;;
14907;SDS011;7545;52.092;7.006;2022-12-29T11:11:07;6.73;;;1.07;;
14907;SDS011;7545;52.092;7.006;2022-12-29T11:13:48;4.85;;;1.40;;
14907;SDS011;7545;52.092;7.006;2022-12-29T11:16:15;5.18;;;1.00;;
14907;SDS011;7545;52.092;7.006;2022-12-29T11:18:55;3.97;;;1.55;;
14907;SDS011;7545;52.092;7.006;2022-12-29T11:21:31;4.60;;;1.38;;
14907;SDS011;7545;52.092;7.006;2022-12-29T11:24:08;7.75;;;1.02;;
14907;SDS011;7545;52.092;7.006;2022-12-29T11:26:45;4.15;;;1.08;;
14907;SDS011;7545;52.092;7.006;2022-12-29T11:31:49;4.50;;;0.98;;
14907;SDS011;7545;52.092;7.006;2022-12-29T11:34:17;5.22;;;1.50;;
14907;SDS011;7545;52.092;7.006;2022-12-29T11:36:46;5.30;;;1.00;;
14907;SDS011;7545;52.092;7.006;2022-12-29T11:43:11;4.97;;;0.88;;
14907;SDS011;7545;52.092;7.006;2022-12-29T11:45:20;4.13;;;1.13;;
14907;SDS011;7545;52.092;7.006;2022-12-29T11:47:51;2.05;;;0.88;;
14907;SDS011;7545;52.092;7.006;2022-12-29T11:50:26;3.63;;;0.80;;
14907;SDS011;7545;52.092;7.006;2022-12-29T11:53:01;4.82;;;1.17;;
14907;SDS011;7545;52.092;7.006;2022-12-29T11:55:30;8.65;;;1.08;;
14907;SDS011;7545;52.092;7.006;2022-12-29T11:57:57;4.47;;;1.33;;
14907;SDS011;7545;52.092;7.006;2022-12-29T12:00:27;5.93;;;1.20;;
14907;SDS011;7545;52.092;7.006;2022-12-29T12:03:07;3.42;;;1.30;;
14907;SDS011;7545;52.092;7.006;2022-12-29T12:05:46;3.88;;;1.10;;
14907;SDS011;7545;52.092;7.006;2022-12-29T12:08:19;4.68;;;1.17;;
14907;SDS011;7545;52.092;7.006;2022-12-29T12:16:37;7.03;;;1.20;;
14907;SDS011;7545;52.092;7.006;2022-12-29T12:19:13;3.08;;;1.00;;
14907;SDS011;7545;52.092;7.006;2022-12-29T12:21:50;5.85;;;1.52;;
14907;SDS011;7545;52.092;7.006;2022-12-29T12:27:13;4.43;;;1.02;;
14907;SDS011;7545;52.092;7.006;2022-12-29T12:32:25;4.25;;;1.08;;
14907;SDS011;7545;52.092;7.006;2022-12-29T12:35:02;5.05;;;1.30;;
14907;SDS011;7545;52.092;7.006;2022-12-29T12:37:50;6.50;;;1.30;;
14907;SDS011;7545;52.092;7.006;2022-12-29T12:42:58;2.72;;;1.50;;
14907;SDS011;7545;52.092;7.006;2022-12-29T12:46:23;3.63;;;1.58;;
14907;SDS011;7545;52.092;7.006;2022-12-29T12:48:48;6.75;;;2.15;;
14907;SDS011;7545;52.092;7.006;2022-12-29T12:57:21;3.92;;;1.55;;
14907;SDS011;7545;52.092;7.006;2022-12-29T13:00:12;6.15;;;2.28;;
14907;SDS011;7545;52.092;7.006;2022-12-29T13:22:36;3.50;;;1.25;;
14907;SDS011;7545;52.092;7.006;2022-12-29T13:24:50;6.15;;;1.10;;
14907;SDS011;7545;52.092;7.006;2022-12-29T13:27:39;7.80;;;1.35;;
14907;SDS011;7545;52.092;7.006;2022-12-29T13:30:09;9.52;;;2.05;;
14907;SDS011;7545;52.092;7.006;2022-12-29T13:33:04;5.40;;;1.45;;
14907;SDS011;7545;52.092;7.006;2022-12-29T13:35:47;4.40;;;1.90;;
14907;SDS011;7545;52.092;7.006;2022-12-29T13:40:56;1.88;;;1.15;;
14907;SDS011;7545;52.092;7.006;2022-12-29T13:43:51;3.67;;;1.85;;
14907;SDS011;7545;52.092;7.006;2022-12-29T13:46:20;6.65;;;1.40;;
14907;SDS011;7545;52.092;7.006;2022-12-29T13:48:51;3.77;;;1.40;;
14907;SDS011;7545;52.092;7.006;2022-12-29T13:51:25;6.25;;;1.90;;
14907;SDS011;7545;52.092;7.006;2022-12-29T13:56:29;7.22;;;1.60;;
14907;SDS011;7545;52.092;7.006;2022-12-29T14:01:48;7.03;;;1.80;;
14907;SDS011;7545;52.092;7.006;2022-12-29T14:04:25;5.25;;;1.40;;
14907;SDS011;7545;52.092;7.006;2022-12-29T14:06:58;6.65;;;1.42;;
14907;SDS011;7545;52.092;7.006;2022-12-29T14:09:40;6.82;;;2.00;;
14907;SDS011;7545;52.092;7.006;2022-12-29T14:15:04;4.90;;;1.38;;
14907;SDS011;7545;52.092;7.006;2022-12-29T14:20:21;2.40;;;1.20;;
14907;SDS011;7545;52.092;7.006;2022-12-29T14:28:29;6.85;;;1.70;;
14907;SDS011;7545;52.092;7.006;2022-12-29T14:31:32;4.65;;;1.40;;
14907;SDS011;7545;52.092;7.006;2022-12-29T14:36:35;4.35;;;1.42;;
14907;SDS011;7545;52.092;7.006;2022-12-29T14:39:03;8.38;;;1.60;;
14907;SDS011;7545;52.092;7.006;2022-12-29T14:41:30;6.22;;;1.98;;
14907;SDS011;7545;52.092;7.006;2022-12-29T14:44:02;4.00;;;1.25;;
14907;SDS011;7545;52.092;7.006;2022-12-29T14:47:15;6.80;;;2.15;;
14907;SDS011;7545;52.092;7.006;2022-12-29T14:49:40;5.25;;;1.85;;
14907;SDS011;7545;52.092;7.006;2022-12-29T14:52:16;4.00;;;1.42;;
14907;SDS011;7545;52.092;7.006;2022-12-29T14:54:58;6.90;;;1.63;;
14907;SDS011;7545;52.092;7.006;2022-12-29T14:57:47;7.97;;;1.55;;
14907;SDS011;7545;52.092;7.006;2022-12-29T15:00:18;4.72;;;1.85;;
14907;SDS011;7545;52.092;7.006;2022-12-29T15:02:50;6.10;;;2.15;;
14907;SDS011;7545;52.092;7.006;2022-12-29T15:06:12;4.57;;;2.60;;
14907;SDS011;7545;52.092;7.006;2022-12-29T15:08:25;7.10;;;1.60;;
14907;SDS011;7545;52.092;7.006;2022-12-29T15:13:36;2.90;;;1.00;;
14907;SDS011;7545;52.092;7.006;2022-12-29T15:16:04;2.63;;;1.08;;
14907;SDS011;7545;52.092;7.006;2022-12-29T15:18:45;6.40;;;1.45;;
14907;SDS011;7545;52.092;7.006;2022-12-29T15:21:11;3.78;;;1.55;;
14907;SDS011;7545;52.092;7.006;2022-12-29T15:23:39;5.55;;;1.83;;
14907;SDS011;7545;52.092;7.006;2022-12-29T15:26:09;5.43;;;1.70;;
14907;SDS011;7545;52.092;7.006;2022-12-29T15:28:42;1.98;;;1.10;;
14907;SDS011;7545;52.092;7.006;2022-12-29T15:31:16;4.93;;;1.17;;
14907;SDS011;7545;52.092;7.006;2022-12-29T15:33:44;3.53;;;2.30;;
14907;SDS011;7545;52.092;7.006;2022-12-29T15:38:46;4.22;;;1.60;;
14907;SDS011;7545;52.092;7.006;2022-12-29T15:44:25;2.92;;;1.15;;
14907;SDS011;7545;52.092;7.006;2022-12-29T15:47:05;2.70;;;0.80;;
14907;SDS011;7545;52.092;7.006;2022-12-29T15:49:37;2.37;;;0.90;;
14907;SDS011;7545;52.092;7.006;2022-12-29T15:52:07;5.10;;;0.88;;
14907;SDS011;7545;52.092;7.006;2022-12-29T15:54:34;2.92;;;1.00;;
14907;SDS011;7545;52.092;7.006;2022-12-29T15:57:01;4.00;;;1.02;;
14907;SDS011;7545;52.092;7.006;2022-12-29T15:59:31;6.10;;;1.20;;
14907;SDS011;7545;52.092;7.006;2022-12-29T16:01:58;1.92;;;0.93;;
14907;SDS011;7545;52.092;7.006;2022-12-29T16:04:27;6.17;;;1.40;;
14907;SDS011;7545;52.092;7.006;2022-12-29T16:06:59;2.83;;;0.93;;
14907;SDS011;7545;52.092;7.006;2022-12-29T16:09:29;4.73;;;1.40;;
14907;SDS011;7545;52.092;7.006;2022-12-29T16:12:01;4.73;;;1.00;;
14907;SDS011;7545;52.092;7.006;2022-12-29T16:16:56;6.00;;;1.90;;
14907;SDS011;7545;52.092;7.006;2022-12-29T16:19:27;6.43;;;1.50;;
14907;SDS011;7545;52.092;7.006;2022-12-29T16:22:02;5.63;;;1.73;;
14907;SDS011;7545;52.092;7.006;2022-12-29T16:24:34;4.70;;;1.47;;
14907;SDS011;7545;52.092;7.006;2022-12-29T16:27:14;4.68;;;1.30;;
14907;SDS011;7545;52.092;7.006;2022-12-29T16:29:48;3.77;;;1.63;;
14907;SDS011;7545;52.092;7.006;2022-12-29T16:32:30;3.13;;;1.05;;
14907;SDS011;7545;52.092;7.006;2022-12-29T16:37:49;6.43;;;1.57;;
14907;SDS011;7545;52.092;7.006;2022-12-29T16:40:31;5.32;;;1.48;;
14907;SDS011;7545;52.092;7.006;2022-12-29T16:43:00;5.60;;;1.58;;
14907;SDS011;7545;52.092;7.006;2022-12-29T16:50:52;5.03;;;2.13;;
14907;SDS011;7545;52.092;7.006;2022-12-29T16:53:39;1.75;;;1.00;;
14907;SDS011;7545;52.092;7.006;2022-12-29T16:56:28;4.13;;;1.50;;
14907;SDS011;7545;52.092;7.006;2022-12-29T16:59:01;6.10;;;1.67;;
14907;SDS011;7545;52.092;7.006;2022-12-29T17:01:27;6.25;;;1.85;;
14907;SDS011;7545;52.092;7.006;2022-12-29T17:03:53;5.90;;;2.30;;
14907;SDS011;7545;52.092;7.006;2022-12-29T17:06:23;3.90;;;1.47;;
14907;SDS011;7545;52.092;7.006;2022-12-29T17:08:50;4.20;;;1.33;;
14907;SDS011;7545;52.092;7.006;2022-12-29T17:11:20;1.63;;;1.05;;
14907;SDS011;7545;52.092;7.006;2022-12-29T17:16:45;3.30;;;1.45;;
14907;SDS011;7545;52.092;7.006;2022-12-29T17:19:16;4.10;;;1.13;;
14907;SDS011;7545;52.092;7.006;2022-12-29T17:21:43;2.57;;;1.10;;
14907;SDS011;7545;52.092;7.006;2022-12-29T17:24:18;8.37;;;1.60;;
14907;SDS011;7545;52.092;7.006;2022-12-29T17:26:54;3.30;;;1.40;;
14907;SDS011;7545;52.092;7.006;2022-12-29T17:31:56;4.13;;;1.20;;
14907;SDS011;7545;52.092;7.006;2022-12-29T17:34:22;5.60;;;1.60;;
14907;SDS011;7545;52.092;7.006;2022-12-29T17:36:48;3.37;;;1.07;;
14907;SDS011;7545;52.092;7.006;2022-12-29T17:39:14;3.77;;;1.57;;
14907;SDS011;7545;52.092;7.006;2022-12-29T17:41:40;2.93;;;0.80;;
14907;SDS011;7545;52.092;7.006;2022-12-29T17:44:05;4.30;;;1.40;;
14907;SDS011;7545;52.092;7.006;2022-12-29T17:46:31;2.03;;;1.00;;
14907;SDS011;7545;52.092;7.006;2022-12-29T17:48:58;3.25;;;1.35;;
14907;SDS011;7545;52.092;7.006;2022-12-29T17:51:23;3.97;;;1.30;;
14907;SDS011;7545;52.092;7.006;2022-12-29T17:53:49;2.33;;;1.10;;
14907;SDS011;7545;52.092;7.006;2022-12-29T17:56:16;4.00;;;1.30;;
14907;SDS011;7545;52.092;7.006;2022-12-29T17:58:42;5.20;;;1.70;;
14907;SDS011;7545;52.092;7.006;2022-12-29T18:01:08;5.30;;;1.13;;